Time;durP1;ratioP1;P1;durP2;ratioP2;P2;SDS_P1;SDS_P2;PMS_P1;PMS_P2;Temp;Humidity;BMP_temperature;BMP_pressure;BME280_temperature;BME280_humidity;BME280_pressure;Samples;Min_cycle;Max_cycle;Signal;HPM_P1;HPM_P2
2022/01/09 00:00:13;;;;;;;0.00;0.00;;;;;;;;;;5072559;28;20205;-73
2022/01/09 00:02:41;;;;;;;0.00;0.00;;;;;;;;;;5075469;28;20267;-74
2022/01/09 00:05:11;;;;;;;0.00;0.00;;;;;;;;;;5075601;28;20727;-74
2022/01/09 00:07:40;;;;;;;0.00;0.00;;;;;;;;;;5075561;28;20276;-76
2022/01/09 00:10:09;;;;;;;0.00;0.00;;;;;;;;;;5075522;28;20214;-75
2022/01/09 00:12:39;;;;;;;0.00;0.00;;;;;;;;;;5075544;28;20219;-73
2022/01/09 00:15:08;;;;;;;0.00;0.00;;;;;;;;;;5075074;28;20206;-74
2022/01/09 00:17:37;;;;;;;0.00;0.00;;;;;;;;;;5075540;28;20224;-74
2022/01/09 00:20:07;;;;;;;0.00;0.00;;;;;;;;;;5075154;28;20210;-74
2022/01/09 00:22:37;;;;;;;0.00;0.00;;;;;;;;;;5075852;28;20202;-72
2022/01/09 00:25:05;;;;;;;0.00;0.00;;;;;;;;;;5075469;28;20208;-74
2022/01/09 00:27:36;;;;;;;0.00;0.00;;;;;;;;;;5075284;28;20621;-75
2022/01/09 00:30:07;;;;;;;0.00;0.00;;;;;;;;;;5075153;28;20279;-76
2022/01/09 00:32:35;;;;;;;0.00;0.00;;;;;;;;;;5075641;28;20246;-73
2022/01/09 00:35:04;;;;;;;0.00;0.00;;;;;;;;;;5075233;28;20290;-74
2022/01/09 00:37:32;;;;;;;0.00;0.00;;;;;;;;;;5075205;28;20608;-73
2022/01/09 00:40:01;;;;;;;0.00;0.00;;;;;;;;;;5074923;28;20669;-75
2022/01/09 00:42:29;;;;;;;0.00;0.00;;;;;;;;;;5074902;28;20630;-73
2022/01/09 00:44:57;;;;;;;0.00;0.00;;;;;;;;;;5074954;28;20260;-74
2022/01/09 00:47:27;;;;;;;0.00;0.00;;;;;;;;;;5074972;28;20210;-74
2022/01/09 00:49:55;;;;;;;0.00;0.00;;;;;;;;;;5074911;28;20244;-72
2022/01/09 00:52:24;;;;;;;0.00;0.00;;;;;;;;;;5074811;28;20694;-72
2022/01/09 00:54:52;;;;;;;0.00;0.00;;;;;;;;;;5074694;28;20204;-72
2022/01/09 00:57:21;;;;;;;0.00;0.00;;;;;;;;;;5074965;28;20225;-73
2022/01/09 00:59:49;;;;;;;0.00;0.00;;;;;;;;;;5074681;28;20202;-72
2022/01/09 01:02:18;;;;;;;0.00;0.00;;;;;;;;;;5074785;28;20253;-72
2022/01/09 01:04:51;;;;;;;0.00;0.00;;;;;;;;;;5074475;28;20598;-73
2022/01/09 01:07:20;;;;;;;0.00;0.00;;;;;;;;;;5059017;28;20262;-75
2022/01/09 01:09:49;;;;;;;0.00;0.00;;;;;;;;;;5074555;28;20714;-74
2022/01/09 01:12:17;;;;;;;0.00;0.00;;;;;;;;;;5074566;28;20226;-72
2022/01/09 01:14:46;;;;;;;0.00;0.00;;;;;;;;;;5074599;28;20613;-74
2022/01/09 01:17:14;;;;;;;0.00;0.00;;;;;;;;;;5074352;28;20217;-74
2022/01/09 01:19:43;;;;;;;0.00;0.00;;;;;;;;;;5074190;28;20238;-72
2022/01/09 01:22:30;;;;;;;0.00;0.00;;;;;;;;;;5074325;28;20654;-75
2022/01/09 01:24:59;;;;;;;0.00;0.00;;;;;;;;;;5073991;28;20203;-71
2022/01/09 01:27:28;;;;;;;0.00;0.00;;;;;;;;;;5074151;28;20229;-76
2022/01/09 01:29:56;;;;;;;0.00;0.00;;;;;;;;;;5074051;28;20191;-73
2022/01/09 01:32:24;;;;;;;0.00;0.00;;;;;;;;;;5073842;28;20706;-72
2022/01/09 01:34:53;;;;;;;0.00;0.00;;;;;;;;;;5073954;28;20562;-72
2022/01/09 01:37:22;;;;;;;0.00;0.00;;;;;;;;;;5073832;28;20214;-72
2022/01/09 01:39:52;;;;;;;0.00;0.00;;;;;;;;;;5073687;28;20659;-74
2022/01/09 01:42:21;;;;;;;0.00;0.00;;;;;;;;;;5073961;28;20792;-75
2022/01/09 01:44:50;;;;;;;0.00;0.00;;;;;;;;;;5073571;28;20281;-73
2022/01/09 01:47:20;;;;;;;0.00;0.00;;;;;;;;;;5074010;28;20261;-73
2022/01/09 01:49:49;;;;;;;0.00;0.00;;;;;;;;;;5074165;28;20296;-72
2022/01/09 01:52:22;;;;;;;0.00;0.00;;;;;;;;;;5073942;28;20221;-73
2022/01/09 01:54:51;;;;;;;0.00;0.00;;;;;;;;;;5073955;28;20205;-74
2022/01/09 01:57:20;;;;;;;0.00;0.00;;;;;;;;;;5073772;28;20719;-73
2022/01/09 01:59:48;;;;;;;0.00;0.00;;;;;;;;;;5073562;28;20214;-75
2022/01/09 02:02:17;;;;;;;0.00;0.00;;;;;;;;;;5074186;28;20201;-75
2022/01/09 02:04:45;;;;;;;0.00;0.00;;;;;;;;;;5073892;28;20206;-74
2022/01/09 02:07:14;;;;;;;0.00;0.00;;;;;;;;;;5073792;28;20231;-75
2022/01/09 02:09:43;;;;;;;0.00;0.00;;;;;;;;;;5073431;28;20263;-73
2022/01/09 02:12:13;;;;;;;0.00;0.00;;;;;;;;;;5073138;28;20231;-74
2022/01/09 02:14:46;;;;;;;0.00;0.00;;;;;;;;;;5073711;28;20712;-73
2022/01/09 02:17:16;;;;;;;0.00;0.00;;;;;;;;;;5073360;28;20218;-74
2022/01/09 02:19:56;;;;;;;0.00;0.00;;;;;;;;;;5073369;28;20242;-72
2022/01/09 02:22:27;;;;;;;0.00;0.00;;;;;;;;;;5073037;28;20599;-73
2022/01/09 02:24:55;;;;;;;0.00;0.00;;;;;;;;;;5073497;28;20263;-74
2022/01/09 02:27:24;;;;;;;0.00;0.00;;;;;;;;;;5073318;28;20220;-72
2022/01/09 02:29:52;;;;;;;0.00;0.00;;;;;;;;;;5073098;28;20622;-73
2022/01/09 02:32:20;;;;;;;0.00;0.00;;;;;;;;;;5073400;28;20218;-73
2022/01/09 02:34:50;;;;;;;0.00;0.00;;;;;;;;;;5073348;28;20218;-72
2022/01/09 02:37:21;;;;;;;0.00;0.00;;;;;;;;;;5053673;28;20226;-73
2022/01/09 02:39:49;;;;;;;0.00;0.00;;;;;;;;;;5070235;28;20298;-73
2022/01/09 02:42:19;;;;;;;0.00;0.00;;;;;;;;;;5073280;28;20247;-76
2022/01/09 02:44:47;;;;;;;0.00;0.00;;;;;;;;;;5073040;28;20565;-74
2022/01/09 02:47:16;;;;;;;0.00;0.00;;;;;;;;;;5073116;28;20236;-73
2022/01/09 02:49:48;;;;;;;0.00;0.00;;;;;;;;;;5072942;28;20216;-75
2022/01/09 02:52:29;;;;;;;0.00;0.00;;;;;;;;;;5073267;28;20226;-75
2022/01/09 02:55:11;;;;;;;0.00;0.00;;;;;;;;;;5073117;28;20250;-75
2022/01/09 02:57:40;;;;;;;0.00;0.00;;;;;;;;;;5073058;28;20229;-73
2022/01/09 03:00:10;;;;;;;0.00;0.00;;;;;;;;;;5073076;28;20261;-73
2022/01/09 03:02:38;;;;;;;0.00;0.00;;;;;;;;;;5073249;28;20260;-72
2022/01/09 03:05:07;;;;;;;0.00;0.00;;;;;;;;;;5073030;28;20208;-74
2022/01/09 03:07:36;;;;;;;0.00;0.00;;;;;;;;;;5072657;28;20215;-74
2022/01/09 03:10:06;;;;;;;0.00;0.00;;;;;;;;;;5072846;28;20234;-72
2022/01/09 03:12:35;;;;;;;0.00;0.00;;;;;;;;;;5075190;28;20211;-73
2022/01/09 03:15:04;;;;;;;0.00;0.00;;;;;;;;;;5073767;28;20562;-73
2022/01/09 03:17:32;;;;;;;0.00;0.00;;;;;;;;;;5072445;28;20225;-73
2022/01/09 03:20:01;;;;;;;0.00;0.00;;;;;;;;;;5072524;28;20681;-73
2022/01/09 03:22:29;;;;;;;0.00;0.00;;;;;;;;;;5072968;28;20273;-72
2022/01/09 03:24:58;;;;;;;0.00;0.00;;;;;;;;;;5072889;28;20254;-73
2022/01/09 03:27:27;;;;;;;0.00;0.00;;;;;;;;;;5072990;28;20225;-72
2022/01/09 03:29:56;;;;;;;0.00;0.00;;;;;;;;;;5072079;28;20729;-74
2022/01/09 03:32:24;;;;;;;0.00;0.00;;;;;;;;;;5072624;28;20668;-74
2022/01/09 03:34:53;;;;;;;0.00;0.00;;;;;;;;;;5074622;28;20206;-75
2022/01/09 03:37:21;;;;;;;0.00;0.00;;;;;;;;;;5076472;28;20698;-75
2022/01/09 03:39:50;;;;;;;0.00;0.00;;;;;;;;;;5074849;28;20239;-72
2022/01/09 03:42:18;;;;;;;0.00;0.00;;;;;;;;;;5076503;28;20206;-76
2022/01/09 03:44:48;;;;;;;0.00;0.00;;;;;;;;;;5076263;28;20214;-73
2022/01/09 03:47:17;;;;;;;0.00;0.00;;;;;;;;;;5076571;28;20225;-74
2022/01/09 03:49:46;;;;;;;0.00;0.00;;;;;;;;;;5075989;28;20298;-76
2022/01/09 03:52:15;;;;;;;0.00;0.00;;;;;;;;;;5076516;28;20199;-76
2022/01/09 03:54:43;;;;;;;0.00;0.00;;;;;;;;;;5076369;28;20228;-74
2022/01/09 03:57:12;;;;;;;0.00;0.00;;;;;;;;;;5076296;28;20224;-75
2022/01/09 03:59:40;;;;;;;0.00;0.00;;;;;;;;;;5075912;28;20549;-75
2022/01/09 04:02:10;;;;;;;0.00;0.00;;;;;;;;;;5076486;28;20197;-76
2022/01/09 04:04:39;;;;;;;0.00;0.00;;;;;;;;;;5076012;28;20596;-76
2022/01/09 04:07:08;;;;;;;0.00;0.00;;;;;;;;;;5076410;28;20706;-75
2022/01/09 04:09:39;;;;;;;0.00;0.00;;;;;;;;;;5075896;28;20252;-75
2022/01/09 04:12:15;;;;;;;0.00;0.00;;;;;;;;;;5076176;28;20187;-74
2022/01/09 04:14:44;;;;;;;0.00;0.00;;;;;;;;;;5082838;28;20217;-74
2022/01/09 04:17:19;;;;;;;0.00;0.00;;;;;;;;;;5096408;28;20251;-74
2022/01/09 04:19:48;;;;;;;0.00;0.00;;;;;;;;;;5078959;28;20594;-78
2022/01/09 04:22:16;;;;;;;0.00;0.00;;;;;;;;;;5075727;28;20204;-73
2022/01/09 04:24:45;;;;;;;0.00;0.00;;;;;;;;;;5081707;28;20225;-77
2022/01/09 04:27:14;;;;;;;0.00;0.00;;;;;;;;;;5075540;28;20268;-77
2022/01/09 04:29:42;;;;;;;0.00;0.00;;;;;;;;;;5081166;28;20257;-76
2022/01/09 04:32:11;;;;;;;0.00;0.00;;;;;;;;;;5080700;28;20207;-74
2022/01/09 04:34:41;;;;;;;0.00;0.00;;;;;;;;;;5075800;28;20236;-75
2022/01/09 04:37:10;;;;;;;0.00;0.00;;;;;;;;;;5075527;28;20219;-74
2022/01/09 04:39:38;;;;;;;0.00;0.00;;;;;;;;;;5089536;28;20198;-76
2022/01/09 04:42:07;;;;;;;0.00;0.00;;;;;;;;;;5062104;28;20269;-76
2022/01/09 04:44:35;;;;;;;0.00;0.00;;;;;;;;;;5074823;28;20204;-79
2022/01/09 04:47:09;;;;;;;0.00;0.00;;;;;;;;;;5075469;28;20230;-76
2022/01/09 04:49:40;;;;;;;0.00;0.00;;;;;;;;;;5087859;28;20202;-78
2022/01/09 04:52:14;;;;;;;0.00;0.00;;;;;;;;;;5070244;28;20241;-73
2022/01/09 04:54:42;;;;;;;0.00;0.00;;;;;;;;;;5077753;28;20638;-77
2022/01/09 04:57:12;;;;;;;0.00;0.00;;;;;;;;;;5075269;28;20210;-80
2022/01/09 04:59:40;;;;;;;0.00;0.00;;;;;;;;;;5075506;28;20200;-75
2022/01/09 05:02:08;;;;;;;0.00;0.00;;;;;;;;;;5075279;28;20197;-77
2022/01/09 05:04:37;;;;;;;0.00;0.00;;;;;;;;;;5075440;28;20643;-76
2022/01/09 05:07:06;;;;;;;0.00;0.00;;;;;;;;;;5074848;28;20230;-74
2022/01/09 05:09:36;;;;;;;0.10;0.10;;;;;;;;;;5075093;28;20203;-75
2022/01/09 05:12:04;;;;;;;0.10;0.10;;;;;;;;;;5074632;28;20203;-76
2022/01/09 05:14:33;;;;;;;0.10;0.10;;;;;;;;;;5074733;28;20651;-73
2022/01/09 05:17:01;;;;;;;0.00;0.00;;;;;;;;;;5074889;28;20227;-75
2022/01/09 05:19:32;;;;;;;0.00;0.00;;;;;;;;;;5074530;28;20251;-73
2022/01/09 05:22:01;;;;;;;0.00;0.00;;;;;;;;;;5065407;28;20642;-76
2022/01/09 05:24:29;;;;;;;0.00;0.00;;;;;;;;;;5074962;28;20331;-75
2022/01/09 05:26:59;;;;;;;0.07;0.07;;;;;;;;;;5074689;28;20691;-75
2022/01/09 05:29:28;;;;;;;0.17;0.17;;;;;;;;;;5074349;28;20204;-75
2022/01/09 05:31:56;;;;;;;0.00;0.00;;;;;;;;;;5074869;28;20257;-75
2022/01/09 05:34:25;;;;;;;0.00;0.00;;;;;;;;;;5074389;28;20223;-75
2022/01/09 05:36:53;;;;;;;0.00;0.00;;;;;;;;;;5074708;28;20598;-75
2022/01/09 05:39:21;;;;;;;0.30;0.20;;;;;;;;;;5074055;28;20285;-75
2022/01/09 05:41:50;;;;;;;0.00;0.00;;;;;;;;;;5074328;28;20205;-76
2022/01/09 05:44:20;;;;;;;0.00;0.00;;;;;;;;;;5073949;28;20214;-74
2022/01/09 05:46:51;;;;;;;0.00;0.00;;;;;;;;;;5074188;28;20277;-72
2022/01/09 05:49:20;;;;;;;0.00;0.00;;;;;;;;;;5074083;28;20196;-75
2022/01/09 05:51:48;;;;;;;0.00;0.00;;;;;;;;;;5094103;28;20207;-73
2022/01/09 05:54:17;;;;;;;0.00;0.00;;;;;;;;;;5072802;28;20216;-74
2022/01/09 05:56:47;;;;;;;0.07;0.07;;;;;;;;;;5073302;28;20651;-76
2022/01/09 05:59:15;;;;;;;0.10;0.10;;;;;;;;;;5073575;28;20204;-73
2022/01/09 06:01:45;;;;;;;0.10;0.10;;;;;;;;;;5087719;28;20230;-78
2022/01/09 06:04:13;;;;;;;0.07;0.07;;;;;;;;;;5073891;28;20198;-77
2022/01/09 06:06:42;;;;;;;0.00;0.00;;;;;;;;;;5093196;28;20646;-76
2022/01/09 06:09:10;;;;;;;0.10;0.10;;;;;;;;;;5078940;28;20216;-74
2022/01/09 06:11:38;;;;;;;0.23;0.23;;;;;;;;;;5073865;28;20203;-77
2022/01/09 06:14:07;;;;;;;0.10;0.10;;;;;;;;;;5083758;28;20275;-75
2022/01/09 06:16:35;;;;;;;0.10;0.10;;;;;;;;;;5075137;28;20206;-74
2022/01/09 06:19:05;;;;;;;0.00;0.00;;;;;;;;;;5082493;28;20623;-73
2022/01/09 06:21:33;;;;;;;0.03;0.03;;;;;;;;;;5077671;28;20476;-74
2022/01/09 06:24:02;;;;;;;0.20;0.10;;;;;;;;;;5073087;28;20728;-77
2022/01/09 06:26:30;;;;;;;0.00;0.00;;;;;;;;;;5073647;28;20210;-75
2022/01/09 06:28:59;;;;;;;0.10;0.10;;;;;;;;;;5079713;28;20225;-77
2022/01/09 06:31:27;;;;;;;0.00;0.00;;;;;;;;;;5081877;28;20549;-75
2022/01/09 06:33:55;;;;;;;0.00;0.00;;;;;;;;;;5076443;28;20202;-77
2022/01/09 06:36:25;;;;;;;0.10;0.00;;;;;;;;;;5073029;28;20264;-75
2022/01/09 06:38:54;;;;;;;0.00;0.00;;;;;;;;;;5073624;28;20230;-76
2022/01/09 06:41:22;;;;;;;0.10;0.10;;;;;;;;;;5089678;28;20203;-76
2022/01/09 06:43:51;;;;;;;0.03;0.03;;;;;;;;;;5073472;28;20723;-74
2022/01/09 06:46:21;;;;;;;0.10;0.10;;;;;;;;;;5073121;28;20198;-75
2022/01/09 06:48:51;;;;;;;0.27;0.27;;;;;;;;;;5076379;28;20218;-75
2022/01/09 06:51:19;;;;;;;0.10;0.10;;;;;;;;;;5076264;28;20204;-75
2022/01/09 06:53:49;;;;;;;0.20;0.17;;;;;;;;;;5086831;28;20259;-73
2022/01/09 06:56:17;;;;;;;0.10;0.10;;;;;;;;;;5075784;28;20644;-73
2022/01/09 06:58:45;;;;;;;0.10;0.10;;;;;;;;;;5075929;28;20739;-76
2022/01/09 07:01:14;;;;;;;0.10;0.10;;;;;;;;;;5089698;28;20652;-76
2022/01/09 07:03:42;;;;;;;0.10;0.10;;;;;;;;;;5081996;28;20203;-76
2022/01/09 07:06:11;;;;;;;0.07;0.07;;;;;;;;;;5073212;28;20204;-74
2022/01/09 07:08:40;;;;;;;0.20;0.20;;;;;;;;;;5083716;28;20257;-77
2022/01/09 07:11:09;;;;;;;0.13;0.10;;;;;;;;;;5080448;28;20253;-74
2022/01/09 07:13:38;;;;;;;0.10;0.10;;;;;;;;;;5073555;28;20260;-74
2022/01/09 07:16:06;;;;;;;0.13;0.13;;;;;;;;;;5089760;28;20267;-74
2022/01/09 07:18:35;;;;;;;0.10;0.10;;;;;;;;;;5082089;28;20218;-74
2022/01/09 07:21:03;;;;;;;0.00;0.00;;;;;;;;;;5088577;28;20657;-72
2022/01/09 07:23:31;;;;;;;0.10;0.10;;;;;;;;;;5079597;28;20206;-75
2022/01/09 07:26:00;;;;;;;0.10;0.10;;;;;;;;;;5077274;28;20206;-73
2022/01/09 07:28:30;;;;;;;0.10;0.10;;;;;;;;;;5078306;28;20277;-76
2022/01/09 07:31:01;;;;;;;0.20;0.20;;;;;;;;;;5082939;28;20207;-76
2022/01/09 07:33:34;;;;;;;0.20;0.13;;;;;;;;;;5076837;28;20666;-76
2022/01/09 07:36:02;;;;;;;0.30;0.20;;;;;;;;;;5075599;28;20271;-73
2022/01/09 07:38:30;;;;;;;0.40;0.40;;;;;;;;;;5075948;28;20250;-73
2022/01/09 07:40:59;;;;;;;0.47;0.37;;;;;;;;;;5076602;28;20194;-74
2022/01/09 07:43:27;;;;;;;0.10;0.10;;;;;;;;;;5076587;28;20211;-76
2022/01/09 07:45:57;;;;;;;0.27;0.27;;;;;;;;;;5076118;28;20211;-75
2022/01/09 07:48:25;;;;;;;0.30;0.30;;;;;;;;;;5075961;28;20254;-74
2022/01/09 07:50:54;;;;;;;0.33;0.33;;;;;;;;;;5075244;28;20203;-74
2022/01/09 07:53:23;;;;;;;0.20;0.20;;;;;;;;;;5069752;28;20240;-73
2022/01/09 07:55:52;;;;;;;0.10;0.10;;;;;;;;;;5075636;28;20232;-74
2022/01/09 07:58:21;;;;;;;1.03;0.30;;;;;;;;;;5076048;28;20280;-74
2022/01/09 08:00:49;;;;;;;0.23;0.20;;;;;;;;;;5074163;28;20205;-73
2022/01/09 08:03:19;;;;;;;0.23;0.20;;;;;;;;;;5068483;28;20233;-72
2022/01/09 08:05:48;;;;;;;0.27;0.27;;;;;;;;;;5075544;28;20612;-75
2022/01/09 08:08:16;;;;;;;0.40;0.37;;;;;;;;;;5074167;28;20231;-72
2022/01/09 08:10:44;;;;;;;0.40;0.20;;;;;;;;;;5075974;28;20202;-73
2022/01/09 08:13:13;;;;;;;0.20;0.20;;;;;;;;;;5075616;28;20196;-75
2022/01/09 08:15:44;;;;;;;0.10;0.10;;;;;;;;;;5074691;28;20627;-75
2022/01/09 08:18:12;;;;;;;0.17;0.10;;;;;;;;;;5065755;28;20553;-73
2022/01/09 08:20:42;;;;;;;0.20;0.20;;;;;;;;;;5082465;28;20216;-75
2022/01/09 08:23:11;;;;;;;0.10;0.10;;;;;;;;;;5074840;28;20196;-74
2022/01/09 08:25:39;;;;;;;0.17;0.17;;;;;;;;;;5074782;28;20201;-73
2022/01/09 08:28:08;;;;;;;0.20;0.17;;;;;;;;;;5058630;28;20225;-72
2022/01/09 08:30:37;;;;;;;0.30;0.30;;;;;;;;;;5065986;28;20268;-75
2022/01/09 08:33:05;;;;;;;0.30;0.20;;;;;;;;;;5072351;28;20256;-73
2022/01/09 08:35:34;;;;;;;0.40;0.20;;;;;;;;;;5071708;28;20280;-76
2022/01/09 08:38:04;;;;;;;0.33;0.30;;;;;;;;;;5072047;28;20218;-73
2022/01/09 08:40:32;;;;;;;0.10;0.10;;;;;;;;;;5073129;28;20210;-73
2022/01/09 08:43:00;;;;;;;0.10;0.10;;;;;;;;;;5069491;28;20207;-76
2022/01/09 08:45:29;;;;;;;0.17;0.17;;;;;;;;;;5071625;28;20202;-75
2022/01/09 08:47:57;;;;;;;0.00;0.00;;;;;;;;;;5084294;28;20221;-76
2022/01/09 08:50:26;;;;;;;0.37;0.10;;;;;;;;;;5083628;28;20261;-77
2022/01/09 08:52:54;;;;;;;0.10;0.10;;;;;;;;;;5072251;28;20717;-73
2022/01/09 08:55:26;;;;;;;0.40;0.30;;;;;;;;;;5085936;28;20285;-77
2022/01/09 08:57:57;;;;;;;0.10;0.10;;;;;;;;;;5078183;28;20214;-74
2022/01/09 09:00:25;;;;;;;0.10;0.10;;;;;;;;;;5065893;28;20205;-75
2022/01/09 09:02:54;;;;;;;0.63;0.10;;;;;;;;;;5087085;28;20203;-77
2022/01/09 09:05:22;;;;;;;1.60;0.20;;;;;;;;;;5075464;28;20206;-75
2022/01/09 09:07:51;;;;;;;0.20;0.20;;;;;;;;;;5071032;28;20222;-77
2022/01/09 09:10:19;;;;;;;0.30;0.20;;;;;;;;;;5073122;28;20571;-75
2022/01/09 09:12:49;;;;;;;0.50;0.37;;;;;;;;;;5074501;28;20194;-74
2022/01/09 09:15:20;;;;;;;0.40;0.20;;;;;;;;;;5068487;28;20252;-76
2022/01/09 09:17:53;;;;;;;0.40;0.10;;;;;;;;;;5067594;28;20573;-75
2022/01/09 09:20:22;;;;;;;0.63;0.20;;;;;;;;;;5073882;28;20654;-74
2022/01/09 09:22:50;;;;;;;0.30;0.10;;;;;;;;;;5073725;28;20539;-76
2022/01/09 09:25:19;;;;;;;1.60;0.40;;;;;;;;;;5067183;28;20191;-77
2022/01/09 09:27:47;;;;;;;1.27;0.17;;;;;;;;;;5076526;28;20283;-74
2022/01/09 09:30:17;;;;;;;1.60;0.30;;;;;;;;;;5074933;28;20207;-75
2022/01/09 09:32:46;;;;;;;0.40;0.20;;;;;;;;;;5074822;28;20190;-72
2022/01/09 09:35:14;;;;;;;0.53;0.37;;;;;;;;;;5068319;28;20228;-76
2022/01/09 09:37:43;;;;;;;1.87;0.30;;;;;;;;;;5074714;28;20229;-76
2022/01/09 09:40:12;;;;;;;1.07;0.40;;;;;;;;;;5067153;28;20272;-75
2022/01/09 09:42:40;;;;;;;0.63;0.17;;;;;;;;;;5073413;28;20195;-74
2022/01/09 09:45:10;;;;;;;1.60;0.23;;;;;;;;;;5065824;28;20237;-75
2022/01/09 09:47:41;;;;;;;0.10;0.10;;;;;;;;;;5074372;28;20222;-74
2022/01/09 09:50:11;;;;;;;1.50;0.20;;;;;;;;;;5069672;28;20600;-79
2022/01/09 09:52:39;;;;;;;1.90;0.20;;;;;;;;;;5072304;28;20265;-78
2022/01/09 09:55:08;;;;;;;1.30;0.23;;;;;;;;;;5067328;28;20750;-76
2022/01/09 09:57:36;;;;;;;0.10;0.10;;;;;;;;;;5065512;28;20272;-76
2022/01/09 10:00:07;;;;;;;0.33;0.17;;;;;;;;;;5070070;28;20198;-75
2022/01/09 10:02:44;;;;;;;0.50;0.20;;;;;;;;;;5071051;28;20194;-75
2022/01/09 10:05:14;;;;;;;2.10;0.37;;;;;;;;;;5060538;28;20210;-76
2022/01/09 10:07:42;;;;;;;0.87;0.20;;;;;;;;;;5064663;28;20218;-75
2022/01/09 10:10:14;;;;;;;1.00;0.37;;;;;;;;;;5078891;28;20247;-76
2022/01/09 10:12:43;;;;;;;2.27;0.47;;;;;;;;;;5076495;28;20199;-75
2022/01/09 10:15:12;;;;;;;0.17;0.13;;;;;;;;;;5073124;28;20202;-75
2022/01/09 10:17:43;;;;;;;0.57;0.30;;;;;;;;;;5072219;28;20218;-75
2022/01/09 10:20:16;;;;;;;1.50;0.27;;;;;;;;;;5078779;28;20221;-75
2022/01/09 10:22:46;;;;;;;0.63;0.20;;;;;;;;;;5076019;28;20200;-74
2022/01/09 10:25:26;;;;;;;0.20;0.20;;;;;;;;;;5068585;28;20196;-75
2022/01/09 10:27:58;;;;;;;1.40;0.20;;;;;;;;;;5073803;28;20221;-74
2022/01/09 10:30:28;;;;;;;0.10;0.10;;;;;;;;;;5079263;28;20257;-74
2022/01/09 10:32:59;;;;;;;0.53;0.37;;;;;;;;;;5083734;28;20594;-73
2022/01/09 10:35:28;;;;;;;0.73;0.47;;;;;;;;;;5063111;28;20195;-73
2022/01/09 10:38:05;;;;;;;0.63;0.20;;;;;;;;;;5053134;28;20231;-77
2022/01/09 10:40:34;;;;;;;1.40;0.10;;;;;;;;;;5077097;28;20205;-74
2022/01/09 10:43:04;;;;;;;0.57;0.30;;;;;;;;;;5073164;28;20248;-74
2022/01/09 10:45:33;;;;;;;1.50;0.20;;;;;;;;;;5082242;28;20198;-77
2022/01/09 10:48:07;;;;;;;3.20;0.23;;;;;;;;;;5078538;28;20702;-76
2022/01/09 10:50:37;;;;;;;0.20;0.20;;;;;;;;;;5073640;28;20200;-75
2022/01/09 10:53:19;;;;;;;1.20;0.10;;;;;;;;;;5066598;28;20244;-75
2022/01/09 10:55:48;;;;;;;0.30;0.27;;;;;;;;;;4720257;28;10000228;-75
2022/01/09 10:58:17;;;;;;;1.20;0.30;;;;;;;;;;5077067;28;20314;-77
2022/01/09 11:00:47;;;;;;;0.40;0.20;;;;;;;;;;5079522;28;20199;-75
2022/01/09 11:03:17;;;;;;;2.00;0.30;;;;;;;;;;5069601;28;20202;-75
2022/01/09 11:05:46;;;;;;;1.20;0.10;;;;;;;;;;5069770;28;20202;-75
2022/01/09 11:08:15;;;;;;;0.30;0.10;;;;;;;;;;5070648;28;20642;-73
2022/01/09 11:10:43;;;;;;;0.37;0.23;;;;;;;;;;5067711;28;20599;-74
2022/01/09 11:13:15;;;;;;;0.50;0.20;;;;;;;;;;5061249;28;20202;-77
2022/01/09 11:16:32;;;;;;;0.20;0.20;;;;;;;;;;5068980;28;20207;-76
2022/01/09 11:18:34;;;;;;;0.10;0.10;;;;;;;;;;5067093;28;20642;-74
2022/01/09 11:21:03;;;;;;;0.57;0.10;;;;;;;;;;5070146;28;20330;-72
2022/01/09 11:23:35;;;;;;;1.03;0.40;;;;;;;;;;5063334;28;20249;-74
2022/01/09 11:26:07;;;;;;;0.30;0.10;;;;;;;;;;5063833;28;20240;-74
2022/01/09 11:28:38;;;;;;;0.10;0.00;;;;;;;;;;5063982;28;20268;-73
2022/01/09 11:31:12;;;;;;;0.40;0.30;;;;;;;;;;5070767;28;20236;-73
2022/01/09 11:33:47;;;;;;;0.37;0.13;;;;;;;;;;5069665;28;20240;-71
2022/01/09 11:36:19;;;;;;;0.20;0.20;;;;;;;;;;5071087;28;20243;-76
2022/01/09 11:38:52;;;;;;;0.83;0.27;;;;;;;;;;5073943;28;20235;-75
2022/01/09 11:41:21;;;;;;;2.00;0.53;;;;;;;;;;5065727;28;20256;-75
2022/01/09 11:43:54;;;;;;;0.10;0.10;;;;;;;;;;5065999;28;20272;-75
2022/01/09 11:46:22;;;;;;;0.07;0.07;;;;;;;;;;5076725;28;20802;-73
2022/01/09 11:49:01;;;;;;;1.83;0.30;;;;;;;;;;5067808;28;20640;-75
2022/01/09 11:51:30;;;;;;;0.90;0.20;;;;;;;;;;5069814;28;20272;-76
2022/01/09 11:54:00;;;;;;;1.30;0.33;;;;;;;;;;5068633;28;20226;-74
2022/01/09 11:56:46;;;;;;;0.10;0.10;;;;;;;;;;5073289;28;20206;-73
2022/01/09 11:59:29;;;;;;;1.07;0.23;;;;;;;;;;5070961;28;20206;-74
2022/01/09 12:02:00;;;;;;;0.60;0.20;;;;;;;;;;5073743;28;20195;-74
2022/01/09 12:04:48;;;;;;;1.50;0.43;;;;;;;;;;5068265;28;20206;-75
2022/01/09 12:07:19;;;;;;;0.50;0.13;;;;;;;;;;5071886;28;20612;-72
2022/01/09 12:09:48;;;;;;;2.23;0.27;;;;;;;;;;5071623;28;20217;-74
2022/01/09 12:12:17;;;;;;;0.20;0.20;;;;;;;;;;5074123;28;20256;-73
2022/01/09 12:14:54;;;;;;;0.20;0.10;;;;;;;;;;5072398;28;20276;-72
2022/01/09 12:17:45;;;;;;;0.20;0.20;;;;;;;;;;5073047;28;20218;-73
2022/01/09 12:20:28;;;;;;;0.40;0.20;;;;;;;;;;5077755;28;20285;-74
2022/01/09 12:23:02;;;;;;;1.10;0.23;;;;;;;;;;5072905;28;20205;-73
2022/01/09 12:25:52;;;;;;;0.30;0.30;;;;;;;;;;5073485;28;20267;-77
2022/01/09 12:28:25;;;;;;;0.60;0.30;;;;;;;;;;5072261;28;20218;-73
2022/01/09 12:30:55;;;;;;;2.63;0.20;;;;;;;;;;5072081;28;20202;-75
2022/01/09 12:33:51;;;;;;;0.63;0.13;;;;;;;;;;5079101;28;20705;-75
2022/01/09 12:36:23;;;;;;;0.87;0.20;;;;;;;;;;5041122;28;20206;-75
2022/01/09 12:38:56;;;;;;;0.20;0.10;;;;;;;;;;5073053;28;20222;-76
2022/01/09 12:41:26;;;;;;;0.20;0.20;;;;;;;;;;5069300;28;20217;-73
2022/01/09 12:44:00;;;;;;;0.10;0.10;;;;;;;;;;5073262;28;20214;-72
2022/01/09 12:46:30;;;;;;;0.30;0.20;;;;;;;;;;5071290;28;20207;-75
2022/01/09 12:49:00;;;;;;;0.77;0.20;;;;;;;;;;5073262;28;20228;-73
2022/01/09 12:51:30;;;;;;;1.23;0.10;;;;;;;;;;5072826;28;20233;-73
2022/01/09 12:54:01;;;;;;;0.00;0.00;;;;;;;;;;5076952;28;20240;-74
2022/01/09 12:56:30;;;;;;;0.00;0.00;;;;;;;;;;5082317;28;20210;-75
2022/01/09 12:59:00;;;;;;;0.20;0.10;;;;;;;;;;5073019;28;20222;-73
2022/01/09 13:01:31;;;;;;;0.90;0.10;;;;;;;;;;5073196;28;20268;-73
2022/01/09 13:04:00;;;;;;;0.77;0.20;;;;;;;;;;5072884;28;20206;-75
2022/01/09 13:06:30;;;;;;;0.10;0.10;;;;;;;;;;5072054;28;20206;-72
2022/01/09 13:09:04;;;;;;;0.00;0.00;;;;;;;;;;5078588;28;20243;-73
2022/01/09 13:11:47;;;;;;;0.00;0.00;;;;;;;;;;5052346;28;20867;-72
2022/01/09 13:14:30;;;;;;;0.00;0.00;;;;;;;;;;5070620;28;20213;-73
2022/01/09 13:16:59;;;;;;;0.13;0.00;;;;;;;;;;5061635;28;20254;-75
2022/01/09 13:19:28;;;;;;;0.30;0.20;;;;;;;;;;5056811;28;20237;-75
2022/01/09 13:22:18;;;;;;;0.00;0.00;;;;;;;;;;5061938;28;20199;-74
2022/01/09 13:24:48;;;;;;;0.00;0.00;;;;;;;;;;5081738;28;20284;-74
2022/01/09 13:27:19;;;;;;;1.10;0.20;;;;;;;;;;5092444;28;20711;-73
2022/01/09 13:29:56;;;;;;;0.33;0.10;;;;;;;;;;5071411;28;20198;-75
2022/01/09 13:32:24;;;;;;;0.00;0.00;;;;;;;;;;5071426;28;20206;-75
2022/01/09 13:34:54;;;;;;;0.43;0.10;;;;;;;;;;5071296;28;20282;-73
2022/01/09 13:37:24;;;;;;;0.00;0.00;;;;;;;;;;5065120;28;20279;-72
2022/01/09 13:39:58;;;;;;;0.43;0.10;;;;;;;;;;5070833;28;20223;-75
2022/01/09 13:42:30;;;;;;;0.20;0.10;;;;;;;;;;5074787;28;20206;-74
2022/01/09 13:45:05;;;;;;;0.03;0.00;;;;;;;;;;5070718;28;20593;-72
2022/01/09 13:47:42;;;;;;;0.37;0.10;;;;;;;;;;5074672;28;20214;-74
2022/01/09 13:50:14;;;;;;;0.10;0.00;;;;;;;;;;5059993;28;20199;-73
2022/01/09 13:52:43;;;;;;;0.13;0.10;;;;;;;;;;5071163;28;20260;-72
2022/01/09 13:55:14;;;;;;;0.00;0.00;;;;;;;;;;5070433;28;20198;-74
2022/01/09 13:57:50;;;;;;;0.00;0.00;;;;;;;;;;5071171;28;20632;-72
2022/01/09 14:00:21;;;;;;;0.17;0.10;;;;;;;;;;5064164;28;20218;-72
2022/01/09 14:02:50;;;;;;;0.00;0.00;;;;;;;;;;5070247;28;20622;-73
2022/01/09 14:05:39;;;;;;;0.00;0.00;;;;;;;;;;5073688;28;20657;-75
2022/01/09 14:08:09;;;;;;;0.10;0.10;;;;;;;;;;5071092;28;20692;-75
2022/01/09 14:10:40;;;;;;;0.57;0.10;;;;;;;;;;5070020;28;20206;-73
2022/01/09 14:13:12;;;;;;;0.10;0.10;;;;;;;;;;5070449;28;20202;-75
2022/01/09 14:15:41;;;;;;;0.20;0.00;;;;;;;;;;5070438;28;20210;-74
2022/01/09 14:18:22;;;;;;;0.03;0.00;;;;;;;;;;5069639;28;20872;-73
2022/01/09 14:20:51;;;;;;;0.00;0.00;;;;;;;;;;5070504;28;20268;-73
2022/01/09 14:23:21;;;;;;;0.57;0.00;;;;;;;;;;5070487;28;20655;-75
2022/01/09 14:25:51;;;;;;;0.00;0.00;;;;;;;;;;5069959;28;20519;-72
2022/01/09 14:28:20;;;;;;;0.00;0.00;;;;;;;;;;5070575;28;20230;-75
2022/01/09 14:30:48;;;;;;;0.00;0.00;;;;;;;;;;5069878;28;20198;-72
2022/01/09 14:33:18;;;;;;;0.00;0.00;;;;;;;;;;5070793;28;20666;-74
2022/01/09 14:35:47;;;;;;;0.00;0.00;;;;;;;;;;5070469;28;20220;-74
2022/01/09 14:38:16;;;;;;;0.07;0.07;;;;;;;;;;5071923;28;20268;-74
2022/01/09 14:40:49;;;;;;;0.10;0.10;;;;;;;;;;5070700;28;20272;-73
2022/01/09 14:43:19;;;;;;;0.00;0.00;;;;;;;;;;5064529;28;20566;-74
2022/01/09 14:45:50;;;;;;;0.00;0.00;;;;;;;;;;5069739;28;20234;-74
2022/01/09 14:48:22;;;;;;;0.00;0.00;;;;;;;;;;5080102;28;20965;-73
2022/01/09 14:50:52;;;;;;;0.00;0.00;;;;;;;;;;5090539;28;20202;-74
2022/01/09 14:53:21;;;;;;;0.37;0.00;;;;;;;;;;5081098;28;20198;-75
2022/01/09 14:55:50;;;;;;;0.00;0.00;;;;;;;;;;5082151;28;20233;-74
2022/01/09 14:58:20;;;;;;;0.07;0.00;;;;;;;;;;5069940;28;20214;-73
2022/01/09 15:00:51;;;;;;;0.00;0.00;;;;;;;;;;5067631;28;20276;-75